Trang, Thailand

11:13 AM ICT on September 01, 2015 (GMT +0700)
Trang | | Change Station
CLOSE
Current Station
Airport
Location: Trang,
Elevation: 52 ft
Nearby Weather Stations

Elev 52 ft 7.51 °N, 99.62 °E | Updated 13 minutes ago

Mostly Cloudy
Mostly Cloudy
90 °F
Feels Like 102 °F
N
0
Wind Variable Wind from North

Today
High -- | Low -- °F
--% Chance of Precip.
Yesterday
High -- | Low -- °F
Precip. -- in
6:13 AM 6:29 PM
Waning Gibbous, 91% visible
Pressure 29.83 in
Visibility 6.2 miles
Clouds Few 1800 ft
Scattered Clouds 12000 ft
Mostly Cloudy 30000 ft
Heat Index 102 °F
Dew Point 77 °F
Humidity 66%
Rainfall 0.00 in
Snow Depth Not available.
UV 8 out of 12
Pollen Not available.
Air Quality Not available.
Flu Activity Not available.
METAR VTST 010400Z 00000KT 9999 FEW018 SCT120 BKN300 32/25 Q1010 A1985 RWY08 INFO E
Pressure 29.83 in
Visibility 6.2 miles
Clouds Few 1800 ft
Scattered Clouds 12000 ft
Mostly Cloudy 30000 ft
Heat Index 102 °F
Dew Point 77 °F
Humidity 66%
Rainfall 0.00 in
Snow Depth Not available.
UV 8 out of 12
Pollen Not available.
Air Quality Not available.
Flu Activity Not available.
METAR VTST 010400Z 00000KT 9999 FEW018 SCT120 BKN300 32/25 Q1010 A1985 RWY08 INFO E

10-Day Weather Forecast

×

Almanac

Astronomy

Sep. 01, 2015 Rise Set
Actual Time
Civil Twilight
Nautical Twilight
Astronomical Twilight
Moon
Length of Visible Light
Length of Day
Tomorrow will be .
, % of the Moon is Illuminated

Today's Extremes

Country Highs Country Lows

Community

WunderPhotos

Upload Photos

1,851,477 photos uploaded!

WunderBlogs® & News

Nearby

Air Quality

  Air Quality AQ Index Pollutant
Not available.

Snow Depth

Station Depth Elevation

Earthquake Activity

City Distance Mag. Time & Date
Minimum magnitude displayed is 2.5.

Coastal Water Temperatures

Place Temperature

Stations

Nearby Weather Stations

Station Location Temp. Windchill Dew Point Humidity Wind Precip. Elev Updated Type